createdAt,value
2018-08-17T00:00:06.032Z,18.90
2018-08-17T00:01:06.034Z,18.92
2018-08-17T00:02:06.036Z,18.98
2018-08-17T00:03:06.039Z,18.92
2018-08-17T00:04:06.042Z,18.92
2018-08-17T00:05:06.045Z,18.93
2018-08-17T00:06:06.046Z,18.93
2018-08-17T00:07:06.049Z,18.92
2018-08-17T00:08:06.051Z,18.90
2018-08-17T00:09:06.055Z,18.96
2018-08-17T00:10:06.059Z,18.99
2018-08-17T00:11:06.059Z,18.92
2018-08-17T00:12:06.061Z,18.98
2018-08-17T00:13:06.064Z,18.95
2018-08-17T00:14:06.065Z,18.78
2018-08-17T00:15:06.068Z,18.78
2018-08-17T00:16:06.072Z,18.86
2018-08-17T00:17:06.073Z,18.92
2018-08-17T00:18:06.080Z,18.89
2018-08-17T00:19:06.080Z,18.92
2018-08-17T00:20:06.081Z,18.90
2018-08-17T00:21:06.084Z,18.88
2018-08-17T00:22:06.086Z,18.83
2018-08-17T00:23:06.089Z,18.81
2018-08-17T00:24:06.093Z,18.88
2018-08-17T00:25:06.093Z,18.80
2018-08-17T00:26:06.097Z,18.89
2018-08-17T00:27:06.098Z,18.84
2018-08-17T00:28:06.101Z,18.86
2018-08-17T00:29:06.105Z,18.86
2018-08-17T00:30:06.105Z,18.90
2018-08-17T00:31:06.108Z,18.81
2018-08-17T00:32:06.111Z,18.81
2018-08-17T00:33:06.113Z,18.78
2018-08-17T00:34:06.115Z,18.81
2018-08-17T00:35:06.118Z,18.78
2018-08-17T00:36:06.120Z,18.75
2018-08-17T00:37:06.123Z,18.81
2018-08-17T00:38:06.124Z,18.81
2018-08-17T00:39:06.127Z,18.78
2018-08-17T00:40:06.129Z,18.78
2018-08-17T00:41:06.133Z,18.81
2018-08-17T00:42:06.136Z,18.84
2018-08-17T00:43:06.139Z,18.86
2018-08-17T00:44:06.139Z,18.84
2018-08-17T00:45:06.145Z,18.77
2018-08-17T00:46:06.144Z,18.86
2018-08-17T00:47:06.146Z,18.80
2018-08-17T00:48:06.159Z,18.96
2018-08-17T00:49:06.173Z,18.81
2018-08-17T00:50:06.160Z,18.90
2018-08-17T00:51:06.155Z,18.86
2018-08-17T00:52:06.158Z,18.92
2018-08-17T00:53:06.160Z,18.92
2018-08-17T00:54:06.162Z,18.89
2018-08-17T00:55:06.163Z,18.95
2018-08-17T00:56:06.167Z,18.92
2018-08-17T00:57:06.168Z,18.84
2018-08-17T00:58:06.171Z,18.86
2018-08-17T00:59:06.173Z,18.90
2018-08-17T01:00:06.175Z,18.95
2018-08-17T01:01:06.177Z,18.81
2018-08-17T01:02:06.181Z,18.75
2018-08-17T01:03:06.181Z,18.74
2018-08-17T01:04:06.184Z,18.71
2018-08-17T01:05:06.188Z,18.63
2018-08-17T01:06:06.188Z,18.75
2018-08-17T01:07:06.193Z,18.66
2018-08-17T01:08:06.194Z,18.71
2018-08-17T01:09:06.197Z,18.70
2018-08-17T01:10:06.198Z,18.62
2018-08-17T01:11:06.201Z,18.59
2018-08-17T01:12:06.202Z,18.56
2018-08-17T01:13:06.206Z,18.50
2018-08-17T01:14:06.206Z,18.53
2018-08-17T01:15:06.210Z,18.53
2018-08-17T01:16:06.211Z,18.53
2018-08-17T01:17:06.214Z,18.53
2018-08-17T01:18:06.216Z,18.50
2018-08-17T01:19:06.218Z,18.50
2018-08-17T01:20:06.223Z,18.41
2018-08-17T01:21:06.224Z,18.49
2018-08-17T01:22:06.222Z,18.45
2018-08-17T01:23:06.227Z,18.49
2018-08-17T01:24:06.229Z,18.66
2018-08-17T01:25:06.231Z,18.78
2018-08-17T01:26:06.231Z,18.78
2018-08-17T01:27:06.238Z,18.96
2018-08-17T01:28:06.237Z,19.07
2018-08-17T01:29:06.239Z,18.99
2018-08-17T01:30:06.240Z,19.04
2018-08-17T01:31:06.242Z,19.04
2018-08-17T01:32:06.244Z,19.04
2018-08-17T01:33:06.246Z,19.08
2018-08-17T01:34:06.248Z,18.99
2018-08-17T01:35:06.251Z,18.89
2018-08-17T01:36:06.253Z,18.89
2018-08-17T01:37:06.253Z,18.81
2018-08-17T01:38:06.255Z,18.81
2018-08-17T01:39:06.258Z,18.74
2018-08-17T01:40:06.259Z,18.74
2018-08-17T01:41:06.261Z,18.68
2018-08-17T01:42:06.262Z,18.62
2018-08-17T01:43:06.264Z,18.59
2018-08-17T01:44:06.268Z,18.59
2018-08-17T01:45:06.268Z,18.50
2018-08-17T01:46:06.268Z,18.50
2018-08-17T01:47:06.272Z,18.50
2018-08-17T01:48:06.273Z,18.37
2018-08-17T01:49:06.277Z,18.25
2018-08-17T01:50:06.277Z,18.26
2018-08-17T01:51:06.278Z,18.28
2018-08-17T01:52:06.280Z,18.19
2018-08-17T01:53:06.284Z,18.20
2018-08-17T01:54:06.281Z,18.10
2018-08-17T01:55:06.285Z,18.19
2018-08-17T01:56:06.286Z,18.20
2018-08-17T01:57:06.286Z,18.19
2018-08-17T01:58:06.287Z,18.11
2018-08-17T01:59:06.289Z,18.07
2018-08-17T02:00:06.292Z,18.08
2018-08-17T02:01:06.292Z,18.16
2018-08-17T02:02:06.295Z,18.16
2018-08-17T02:03:06.296Z,17.94
2018-08-17T02:04:06.295Z,17.97
2018-08-17T02:05:06.299Z,17.94
2018-08-17T02:06:06.299Z,17.92
2018-08-17T02:07:06.303Z,17.85
2018-08-17T02:08:06.301Z,17.94
2018-08-17T02:09:06.305Z,17.82
2018-08-17T02:10:06.307Z,17.87
2018-08-17T02:11:06.306Z,17.86
2018-08-17T02:12:06.306Z,17.86
2018-08-17T02:13:06.308Z,17.87
2018-08-17T02:14:06.308Z,17.85
2018-08-17T02:15:06.310Z,17.86
2018-08-17T02:16:06.312Z,17.79
2018-08-17T02:17:06.313Z,17.79
2018-08-17T02:18:06.314Z,17.78
2018-08-17T02:19:06.314Z,17.80
2018-08-17T02:20:06.317Z,17.78
2018-08-17T02:21:06.318Z,17.82
2018-08-17T02:22:06.317Z,17.78
2018-08-17T02:23:06.319Z,17.68
2018-08-17T02:24:06.323Z,17.70
2018-08-17T02:25:06.322Z,17.74
2018-08-17T02:26:06.320Z,17.71
2018-08-17T02:27:06.324Z,17.70
2018-08-17T02:28:06.323Z,17.70
2018-08-17T02:29:06.326Z,17.70
2018-08-17T02:30:06.325Z,17.71
2018-08-17T02:31:06.326Z,17.79
2018-08-17T02:32:06.333Z,17.71
2018-08-17T02:33:06.329Z,17.74
2018-08-17T02:34:06.330Z,17.68
2018-08-17T02:35:06.340Z,17.68
2018-08-17T02:36:06.332Z,17.74
2018-08-17T02:37:06.332Z,17.68
2018-08-17T02:38:06.337Z,17.70
2018-08-17T02:39:06.333Z,17.71
2018-08-17T02:40:06.334Z,17.79
2018-08-17T02:41:06.336Z,17.80
2018-08-17T02:42:06.336Z,17.78
2018-08-17T02:43:06.337Z,17.76
2018-08-17T02:44:06.338Z,17.80
2018-08-17T02:45:06.339Z,17.74
2018-08-17T02:46:06.339Z,17.85
2018-08-17T02:47:06.342Z,17.76
2018-08-17T02:48:06.341Z,17.74
2018-08-17T02:49:06.342Z,17.83
2018-08-17T02:50:06.342Z,17.82
2018-08-17T02:51:06.345Z,17.76
2018-08-17T02:52:06.346Z,17.82
2018-08-17T02:53:06.346Z,17.82
2018-08-17T02:54:06.346Z,17.83
2018-08-17T02:55:06.346Z,17.92
2018-08-17T02:56:06.349Z,17.90
2018-08-17T02:57:06.351Z,17.97
2018-08-17T02:58:06.350Z,17.97
2018-08-17T02:59:06.351Z,17.97
2018-08-17T03:00:06.352Z,17.98
2018-08-17T03:01:06.357Z,18.07
2018-08-17T03:02:06.355Z,18.01
2018-08-17T03:03:06.355Z,18.05
2018-08-17T03:04:06.356Z,18.07
2018-08-17T03:05:06.357Z,18.08
2018-08-17T03:06:06.357Z,18.05
2018-08-17T03:07:06.361Z,18.08
2018-08-17T03:08:06.360Z,18.05
2018-08-17T03:09:06.362Z,18.07
2018-08-17T03:10:06.363Z,18.05
2018-08-17T03:11:06.363Z,18.07
2018-08-17T03:12:06.365Z,18.07
2018-08-17T03:13:06.367Z,18.07
2018-08-17T03:14:06.366Z,18.07
2018-08-17T03:15:06.366Z,18.10
2018-08-17T03:16:06.370Z,18.15
2018-08-17T03:17:06.370Z,18.15
2018-08-17T03:18:06.371Z,18.19
2018-08-17T03:19:06.371Z,18.22
2018-08-17T03:20:06.374Z,18.22
2018-08-17T03:21:06.375Z,18.25
2018-08-17T03:22:06.377Z,18.22
2018-08-17T03:23:06.376Z,18.31
2018-08-17T03:24:06.377Z,18.23
2018-08-17T03:25:06.378Z,18.26
2018-08-17T03:26:06.378Z,18.26
2018-08-17T03:27:06.381Z,18.31
2018-08-17T03:28:06.380Z,18.34
2018-08-17T03:29:06.383Z,18.29
2018-08-17T03:30:06.387Z,18.37
2018-08-17T03:31:06.385Z,18.35
2018-08-17T03:32:06.386Z,18.38
2018-08-17T03:33:06.388Z,18.41
2018-08-17T03:34:06.388Z,18.49
2018-08-17T03:35:06.389Z,18.49
2018-08-17T03:36:06.394Z,18.47
2018-08-17T03:37:06.407Z,18.49
2018-08-17T03:38:06.467Z,18.53
2018-08-17T03:39:06.395Z,18.65
2018-08-17T03:40:06.397Z,18.53
2018-08-17T03:41:06.396Z,18.65
2018-08-17T03:42:06.398Z,18.65
2018-08-17T03:43:06.399Z,18.70
2018-08-17T03:44:06.402Z,18.74
2018-08-17T03:45:06.443Z,18.70
2018-08-17T03:46:06.404Z,18.73
2018-08-17T03:47:06.407Z,18.74
2018-08-17T03:48:06.406Z,18.77
2018-08-17T03:49:06.408Z,18.83
2018-08-17T03:50:06.406Z,18.83
2018-08-17T03:51:06.414Z,18.80
2018-08-17T03:52:06.414Z,18.83
2018-08-17T03:53:06.413Z,18.89
2018-08-17T03:54:06.413Z,18.77
2018-08-17T03:55:06.415Z,18.86
2018-08-17T03:56:06.416Z,18.86
2018-08-17T03:57:06.419Z,18.88
2018-08-17T03:58:06.419Z,18.86
2018-08-17T03:59:06.421Z,18.86
2018-08-17T04:00:06.421Z,18.89
2018-08-17T04:01:06.423Z,18.88
2018-08-17T04:02:06.424Z,18.90
2018-08-17T04:03:06.426Z,18.93
2018-08-17T04:04:06.427Z,18.95
2018-08-17T04:05:06.429Z,18.89
2018-08-17T04:06:06.429Z,18.98
2018-08-17T04:07:06.431Z,19.00
2018-08-17T04:08:06.432Z,18.96
2018-08-17T04:09:06.435Z,18.96
2018-08-17T04:10:06.434Z,18.86
2018-08-17T04:11:06.488Z,18.86
2018-08-17T04:12:06.440Z,18.86
2018-08-17T04:13:06.441Z,18.78
2018-08-17T04:14:06.442Z,18.78
2018-08-17T04:15:06.443Z,18.75
2018-08-17T04:16:06.444Z,18.71
2018-08-17T04:17:06.446Z,18.74
2018-08-17T04:18:06.446Z,18.73
2018-08-17T04:19:06.449Z,18.71
2018-08-17T04:20:06.450Z,18.68
2018-08-17T04:21:06.451Z,18.71
2018-08-17T04:22:06.453Z,18.60
2018-08-17T04:23:06.456Z,18.52
2018-08-17T04:24:06.457Z,18.47
2018-08-17T04:25:06.462Z,18.38
2018-08-17T04:26:06.459Z,18.40
2018-08-17T04:27:06.460Z,18.26
2018-08-17T04:28:06.464Z,18.19
2018-08-17T04:29:06.465Z,18.19
2018-08-17T04:30:06.503Z,18.22
2018-08-17T04:31:06.466Z,18.23
2018-08-17T04:32:06.473Z,18.23
2018-08-17T04:33:06.469Z,18.26
2018-08-17T04:34:06.471Z,18.20
2018-08-17T04:35:06.472Z,18.22
2018-08-17T04:36:06.475Z,18.20
2018-08-17T04:37:06.475Z,18.25
2018-08-17T04:38:06.475Z,18.28
2018-08-17T04:39:06.477Z,18.28
2018-08-17T04:40:06.479Z,18.33
2018-08-17T04:41:06.481Z,18.38
2018-08-17T04:42:06.483Z,18.38
2018-08-17T04:43:06.482Z,18.40
2018-08-17T04:44:06.484Z,18.38
2018-08-17T04:45:06.487Z,18.40
2018-08-17T04:46:06.486Z,18.40
2018-08-17T04:47:06.488Z,18.40
2018-08-17T04:48:06.489Z,18.38
2018-08-17T04:49:06.495Z,18.38
2018-08-17T04:50:06.492Z,18.41
2018-08-17T04:51:06.493Z,18.40
2018-08-17T04:52:06.494Z,18.41
2018-08-17T04:53:06.497Z,18.38
2018-08-17T04:54:06.498Z,18.37
2018-08-17T04:55:06.500Z,18.38
2018-08-17T04:56:06.500Z,18.44
2018-08-17T04:57:06.502Z,18.50
2018-08-17T04:58:06.503Z,18.52
2018-08-17T04:59:06.505Z,18.52
2018-08-17T05:00:06.507Z,18.52
2018-08-17T05:01:06.507Z,18.52
2018-08-17T05:02:06.512Z,18.52
2018-08-17T05:03:06.510Z,18.53
2018-08-17T05:04:06.513Z,18.55
2018-08-17T05:05:06.515Z,18.56
2018-08-17T05:06:06.515Z,18.52
2018-08-17T05:07:06.517Z,18.49
2018-08-17T05:08:06.521Z,18.49
2018-08-17T05:09:06.615Z,18.47
2018-08-17T05:10:06.522Z,18.45
2018-08-17T05:11:06.522Z,18.53
2018-08-17T05:12:06.525Z,18.50
2018-08-17T05:13:06.526Z,18.50
2018-08-17T05:14:06.528Z,18.50
2018-08-17T05:15:06.530Z,18.47
2018-08-17T05:16:06.532Z,18.50
2018-08-17T05:17:06.533Z,18.60
2018-08-17T05:18:06.535Z,18.52
2018-08-17T05:19:06.536Z,18.53
2018-08-17T05:20:06.541Z,18.56
2018-08-17T05:21:06.540Z,18.50
2018-08-17T05:22:06.543Z,18.53
2018-08-17T05:23:06.543Z,18.52
2018-08-17T05:24:06.546Z,18.50
2018-08-17T05:25:06.546Z,18.50
2018-08-17T05:26:06.548Z,18.49
2018-08-17T05:27:06.550Z,18.53
2018-08-17T05:28:06.553Z,18.52
2018-08-17T05:29:06.557Z,18.47
2018-08-17T05:30:06.554Z,18.56
2018-08-17T05:31:06.556Z,18.50
2018-08-17T05:32:06.561Z,18.47
2018-08-17T05:33:06.560Z,18.50
2018-08-17T05:34:06.560Z,18.55
2018-08-17T05:35:06.563Z,18.52
2018-08-17T05:36:06.597Z,18.49
2018-08-17T05:37:06.566Z,18.40
2018-08-17T05:38:06.569Z,18.37
2018-08-17T05:39:06.570Z,18.37
2018-08-17T05:40:06.571Z,18.35
2018-08-17T05:41:06.574Z,18.35
2018-08-17T05:42:06.574Z,18.34
2018-08-17T05:43:06.577Z,18.41
2018-08-17T05:44:06.579Z,18.38
2018-08-17T05:45:06.662Z,18.37
2018-08-17T05:46:06.580Z,18.29
2018-08-17T05:47:06.585Z,18.26
2018-08-17T05:48:06.586Z,18.35
2018-08-17T05:49:06.588Z,18.37
2018-08-17T05:50:06.588Z,18.33
2018-08-17T05:51:06.590Z,18.33
2018-08-17T05:52:06.591Z,18.38
2018-08-17T05:53:06.593Z,18.37
2018-08-17T05:54:06.594Z,18.34
2018-08-17T05:55:06.597Z,18.31
2018-08-17T05:56:06.602Z,18.37
2018-08-17T05:57:06.601Z,18.29
2018-08-17T05:58:06.601Z,18.37
2018-08-17T05:59:06.604Z,18.33
2018-08-17T06:00:06.605Z,18.20
2018-08-17T06:01:06.608Z,18.22
2018-08-17T06:02:06.609Z,18.20
2018-08-17T06:03:06.611Z,18.18
2018-08-17T06:04:06.612Z,18.13
2018-08-17T06:05:06.615Z,18.20
2018-08-17T06:06:06.614Z,18.22
2018-08-17T06:07:06.617Z,18.16
2018-08-17T06:08:06.619Z,18.16
2018-08-17T06:09:06.621Z,18.04
2018-08-17T06:10:06.621Z,18.07
2018-08-17T06:11:06.658Z,18.18
2018-08-17T06:12:06.628Z,18.18
2018-08-17T06:13:06.629Z,18.16
2018-08-17T06:14:06.628Z,18.16
2018-08-17T06:15:06.632Z,18.16
2018-08-17T06:16:06.632Z,18.20
2018-08-17T06:17:06.635Z,18.22
2018-08-17T06:18:06.635Z,18.19
2018-08-17T06:19:06.683Z,18.15
2018-08-17T06:20:06.639Z,18.04
2018-08-17T06:21:06.642Z,18.19
2018-08-17T06:22:06.642Z,18.20
2018-08-17T06:23:06.645Z,18.15
2018-08-17T06:24:06.645Z,18.08
2018-08-17T06:25:06.649Z,18.04
2018-08-17T06:26:06.648Z,18.04
2018-08-17T06:27:06.652Z,18.03
2018-08-17T06:28:06.653Z,18.16
2018-08-17T06:29:06.654Z,18.08
2018-08-17T06:30:06.655Z,18.07
2018-08-17T06:31:06.656Z,18.08
2018-08-17T06:32:06.659Z,18.08
2018-08-17T06:33:06.662Z,17.94
2018-08-17T06:34:06.663Z,18.03
2018-08-17T06:35:06.665Z,18.01
2018-08-17T06:36:06.737Z,17.87
2018-08-17T06:37:06.737Z,17.92
2018-08-17T06:38:06.669Z,17.89
2018-08-17T06:39:06.670Z,17.90
2018-08-17T06:40:06.673Z,17.97
2018-08-17T06:41:06.674Z,18.07
2018-08-17T06:42:06.675Z,18.07
2018-08-17T06:43:06.677Z,18.08
2018-08-17T06:44:06.678Z,18.16
2018-08-17T06:45:06.681Z,18.00
2018-08-17T06:46:06.681Z,18.08
2018-08-17T06:47:06.682Z,17.94
2018-08-17T06:48:06.684Z,17.86
2018-08-17T06:49:06.687Z,17.92
2018-08-17T06:50:06.688Z,17.94
2018-08-17T06:51:06.711Z,18.00
2018-08-17T06:52:06.691Z,18.10
2018-08-17T06:53:06.693Z,18.00
2018-08-17T06:54:06.697Z,18.07
2018-08-17T06:55:06.699Z,18.04
2018-08-17T06:56:06.698Z,17.94
2018-08-17T06:57:06.718Z,17.94
2018-08-17T06:58:06.701Z,18.00
2018-08-17T06:59:06.705Z,17.98
2018-08-17T07:00:06.704Z,17.92
2018-08-17T07:01:06.705Z,18.03
2018-08-17T07:02:06.707Z,18.05
2018-08-17T07:03:06.708Z,17.97
2018-08-17T07:04:06.713Z,17.95
2018-08-17T07:05:06.712Z,17.92
2018-08-17T07:06:06.714Z,17.90
2018-08-17T07:07:06.714Z,17.98
2018-08-17T07:08:06.718Z,18.08
2018-08-17T07:09:06.856Z,17.98
2018-08-17T07:10:06.721Z,18.01
2018-08-17T07:11:06.721Z,17.92
2018-08-17T07:12:06.725Z,18.03
2018-08-17T07:13:06.725Z,18.01
2018-08-17T07:14:06.730Z,17.97
2018-08-17T07:15:06.728Z,17.95
2018-08-17T07:16:06.734Z,17.92
2018-08-17T07:17:06.732Z,17.97
2018-08-17T07:18:06.734Z,17.95
2018-08-17T07:19:06.736Z,17.94
2018-08-17T07:20:06.736Z,17.97
2018-08-17T07:21:06.739Z,17.95
2018-08-17T07:22:06.739Z,17.95
2018-08-17T07:23:06.742Z,17.98
2018-08-17T07:24:06.744Z,17.94
2018-08-17T07:25:06.744Z,17.97
2018-08-17T07:26:06.745Z,17.97
2018-08-17T07:27:06.750Z,18.00
2018-08-17T07:28:06.762Z,17.98
2018-08-17T07:29:06.750Z,17.94
2018-08-17T07:30:06.750Z,17.92
2018-08-17T07:31:06.753Z,17.95
2018-08-17T07:32:06.754Z,17.89
2018-08-17T07:33:06.756Z,17.92
2018-08-17T07:34:06.757Z,17.90
2018-08-17T07:35:06.763Z,18.01
2018-08-17T07:36:06.760Z,17.95
2018-08-17T07:37:06.762Z,17.97
2018-08-17T07:38:06.762Z,17.98
2018-08-17T07:39:06.765Z,17.89
2018-08-17T07:40:06.765Z,17.92
2018-08-17T07:41:06.768Z,17.86
2018-08-17T07:42:06.769Z,17.87
2018-08-17T07:43:06.770Z,17.87
2018-08-17T07:44:06.772Z,17.89
2018-08-17T07:45:06.775Z,17.90
2018-08-17T07:46:06.776Z,17.86
2018-08-17T07:47:06.776Z,17.82
2018-08-17T07:48:06.878Z,17.87
2018-08-17T07:49:06.781Z,17.95
2018-08-17T07:50:06.781Z,17.94
2018-08-17T07:51:06.782Z,17.94
2018-08-17T07:52:06.783Z,17.97
2018-08-17T07:53:06.785Z,17.94
2018-08-17T07:54:06.786Z,18.00
2018-08-17T07:55:06.787Z,18.05
2018-08-17T07:56:06.790Z,18.04
2018-08-17T07:57:06.791Z,18.00
2018-08-17T07:58:06.793Z,18.07
2018-08-17T07:59:06.834Z,18.16
2018-08-17T08:00:06.797Z,18.18
2018-08-17T08:01:06.797Z,18.11
2018-08-17T08:02:06.799Z,18.20
2018-08-17T08:03:06.800Z,18.25
2018-08-17T08:04:06.805Z,18.22
2018-08-17T08:05:06.804Z,18.23
2018-08-17T08:06:06.806Z,18.18
2018-08-17T08:07:06.807Z,18.15
2018-08-17T08:08:06.810Z,18.23
2018-08-17T08:09:06.812Z,18.31
2018-08-17T08:10:06.813Z,18.35
2018-08-17T08:11:06.839Z,18.41
2018-08-17T08:12:06.817Z,18.37
2018-08-17T08:13:06.817Z,18.35
2018-08-17T08:14:06.820Z,18.35
2018-08-17T08:15:06.821Z,18.38
2018-08-17T08:16:06.824Z,18.47
2018-08-17T08:17:06.826Z,18.50
2018-08-17T08:18:06.828Z,18.52
2018-08-17T08:19:06.828Z,18.49
2018-08-17T08:20:06.832Z,18.49
2018-08-17T08:21:06.832Z,18.55
2018-08-17T08:22:06.834Z,18.56
2018-08-17T08:23:06.837Z,18.63
2018-08-17T08:24:06.839Z,18.75
2018-08-17T08:25:06.841Z,18.74
2018-08-17T08:26:06.886Z,18.63
2018-08-17T08:27:06.844Z,18.70
2018-08-17T08:28:06.848Z,18.52
2018-08-17T08:29:06.849Z,18.55
2018-08-17T08:30:06.851Z,18.62
2018-08-17T08:31:06.853Z,18.66
2018-08-17T08:32:06.857Z,18.70
2018-08-17T08:33:06.857Z,18.77
2018-08-17T08:34:06.861Z,18.71
2018-08-17T08:35:06.862Z,18.68
2018-08-17T08:36:06.864Z,18.63
2018-08-17T08:37:06.866Z,18.56
2018-08-17T08:38:06.868Z,18.58
2018-08-17T08:39:06.870Z,18.56
2018-08-17T08:40:06.873Z,18.50
2018-08-17T08:41:06.876Z,18.62
2018-08-17T08:42:06.877Z,18.59
2018-08-17T08:43:06.880Z,18.52
2018-08-17T08:44:06.882Z,18.59
2018-08-17T08:45:06.886Z,18.60
2018-08-17T08:46:06.885Z,18.55
2018-08-17T08:47:06.890Z,18.66
2018-08-17T08:48:06.890Z,18.70
2018-08-17T08:49:06.894Z,18.70
2018-08-17T08:50:06.895Z,18.68
2018-08-17T08:51:06.899Z,18.66
2018-08-17T08:52:06.899Z,18.66
2018-08-17T08:53:06.916Z,18.66
2018-08-17T08:54:06.903Z,18.88
2018-08-17T08:55:06.906Z,18.75
2018-08-17T08:56:07.003Z,18.83
2018-08-17T08:57:06.911Z,18.81
2018-08-17T08:58:06.912Z,18.89
2018-08-17T08:59:06.915Z,18.81
2018-08-17T09:00:06.917Z,18.71
2018-08-17T09:01:06.923Z,18.71
2018-08-17T09:02:06.922Z,18.52
2018-08-17T09:03:06.923Z,18.58
2018-08-17T09:04:06.928Z,18.41
2018-08-17T09:05:06.928Z,18.52
2018-08-17T09:06:06.930Z,18.66
2018-08-17T09:07:06.932Z,18.58
2018-08-17T09:08:06.951Z,18.70
2018-08-17T09:09:06.939Z,18.78
2018-08-17T09:10:06.940Z,18.81
2018-08-17T09:11:06.941Z,18.90
2018-08-17T09:12:06.945Z,18.98
2018-08-17T09:13:06.947Z,18.95
2018-08-17T09:14:06.947Z,18.93
2018-08-17T09:15:06.950Z,19.02
2018-08-17T09:16:06.952Z,19.02
2018-08-17T09:17:06.956Z,19.14
2018-08-17T09:18:06.957Z,19.24
2018-08-17T09:19:06.960Z,19.47
2018-08-17T09:20:06.962Z,19.51
2018-08-17T09:21:06.969Z,19.49
2018-08-17T09:22:06.967Z,19.49
2018-08-17T09:23:06.970Z,19.49
2018-08-17T09:24:06.972Z,19.49
2018-08-17T09:25:06.976Z,19.51
2018-08-17T09:26:06.977Z,19.51
2018-08-17T09:27:06.979Z,19.49
2018-08-17T09:28:06.982Z,19.51
2018-08-17T09:29:06.989Z,19.14
2018-08-17T09:30:07.030Z,19.09
2018-08-17T09:31:06.990Z,19.19
2018-08-17T09:32:06.994Z,19.21
2018-08-17T09:33:06.996Z,19.29
2018-08-17T09:34:06.998Z,19.04
2018-08-17T09:35:07.001Z,19.11
2018-08-17T09:36:07.048Z,19.08
2018-08-17T09:37:07.006Z,19.19
2018-08-17T09:38:07.008Z,19.26
2018-08-17T09:39:07.011Z,19.16
2018-08-17T09:40:07.014Z,19.26
2018-08-17T09:41:07.016Z,19.26
2018-08-17T09:42:07.046Z,19.29
2018-08-17T09:43:07.021Z,19.31
2018-08-17T09:44:07.025Z,19.45
2018-08-17T09:45:07.028Z,19.62
2018-08-17T09:46:07.029Z,19.58
2018-08-17T09:47:07.032Z,19.64
2018-08-17T09:48:07.040Z,19.70
2018-08-17T09:49:07.039Z,19.71
2018-08-17T09:50:07.042Z,19.51
2018-08-17T09:51:07.044Z,19.62
2018-08-17T09:52:07.046Z,19.67
2018-08-17T09:53:07.049Z,19.58
2018-08-17T09:54:07.053Z,19.51
2018-08-17T09:55:07.056Z,19.54
2018-08-17T09:56:07.059Z,19.56
2018-08-17T09:57:07.062Z,19.66
2018-08-17T09:58:07.065Z,19.59
2018-08-17T09:59:07.068Z,19.69
2018-08-17T10:00:07.073Z,19.69
2018-08-17T10:01:07.074Z,19.77
2018-08-17T10:02:07.076Z,19.92
2018-08-17T10:03:07.079Z,19.92
2018-08-17T10:04:07.095Z,20.00
2018-08-17T10:05:07.088Z,20.02
2018-08-17T10:06:07.090Z,20.18
2018-08-17T10:07:07.093Z,20.21
2018-08-17T10:08:07.096Z,20.34
2018-08-17T10:09:07.101Z,20.32
2018-08-17T10:10:07.103Z,20.24
2018-08-17T10:11:07.107Z,20.19
2018-08-17T10:12:07.112Z,20.32
2018-08-17T10:13:07.114Z,20.40
2018-08-17T10:14:07.117Z,20.29
2018-08-17T10:15:07.121Z,20.16
2018-08-17T10:16:07.125Z,20.22
2018-08-17T10:17:07.128Z,20.18
2018-08-17T10:18:07.131Z,20.25
2018-08-17T10:19:07.134Z,20.06
2018-08-17T10:20:07.139Z,20.03
2018-08-17T10:21:07.170Z,19.88
2018-08-17T10:22:07.454Z,19.76
2018-08-17T10:23:07.149Z,19.88
2018-08-17T10:24:07.153Z,19.89
2018-08-17T10:25:07.157Z,20.00
2018-08-17T10:26:07.160Z,19.88
2018-08-17T10:27:07.163Z,20.04
2018-08-17T10:28:07.168Z,20.06
2018-08-17T10:29:07.171Z,19.99
2018-08-17T10:30:07.175Z,19.85
2018-08-17T10:31:07.179Z,19.82
2018-08-17T10:32:07.182Z,19.86
2018-08-17T10:33:07.186Z,19.91
2018-08-17T10:34:07.210Z,20.06
2018-08-17T10:35:07.193Z,20.18
2018-08-17T10:36:07.198Z,20.22
2018-08-17T10:37:07.202Z,20.34
2018-08-17T10:38:07.203Z,20.18
2018-08-17T10:39:07.208Z,20.18
2018-08-17T10:40:07.211Z,20.21
2018-08-17T10:41:07.216Z,20.16
2018-08-17T10:42:07.219Z,20.14
2018-08-17T10:43:07.223Z,20.14
2018-08-17T10:44:07.226Z,20.06
2018-08-17T10:45:07.232Z,20.03
2018-08-17T10:46:07.232Z,20.13
2018-08-17T10:47:07.237Z,20.19
2018-08-17T10:48:07.241Z,20.22
2018-08-17T10:49:07.284Z,20.22
2018-08-17T10:50:07.249Z,20.07
2018-08-17T10:51:07.251Z,20.25
2018-08-17T10:52:07.256Z,20.31
2018-08-17T10:53:07.260Z,20.40
2018-08-17T10:54:07.264Z,20.43
2018-08-17T10:55:07.267Z,20.40
2018-08-17T10:56:07.274Z,20.16
2018-08-17T10:57:07.276Z,20.09
2018-08-17T10:58:07.278Z,20.11
2018-08-17T10:59:07.283Z,20.14
2018-08-17T11:00:07.287Z,20.07
2018-08-17T11:01:07.290Z,20.28
2018-08-17T11:02:07.295Z,20.29
2018-08-17T11:03:07.297Z,20.13
2018-08-17T11:04:07.304Z,20.18
2018-08-17T11:05:07.306Z,20.03
2018-08-17T11:06:07.309Z,19.91
2018-08-17T11:07:07.313Z,19.79
2018-08-17T11:08:07.316Z,19.79
2018-08-17T11:09:07.321Z,19.73
2018-08-17T11:10:07.323Z,19.47
2018-08-17T11:11:07.406Z,19.41
2018-08-17T11:12:07.332Z,19.49
2018-08-17T11:13:07.335Z,19.54
2018-08-17T11:14:07.339Z,19.40
2018-08-17T11:15:07.343Z,19.40
2018-08-17T11:16:07.345Z,19.48
2018-08-17T11:17:07.456Z,19.59
2018-08-17T11:18:07.354Z,19.58
2018-08-17T11:19:07.356Z,19.21
2018-08-17T11:20:07.360Z,19.19
2018-08-17T11:21:07.363Z,19.08
2018-08-17T11:22:07.366Z,19.12
2018-08-17T11:23:07.371Z,19.04
2018-08-17T11:24:07.374Z,19.07
2018-08-17T11:25:07.378Z,18.99
2018-08-17T11:26:07.383Z,19.08
2018-08-17T11:27:07.386Z,19.12
2018-08-17T11:28:07.387Z,19.27
2018-08-17T11:29:07.390Z,19.45
2018-08-17T11:30:07.395Z,19.40
2018-08-17T11:31:07.395Z,19.24
2018-08-17T11:32:07.400Z,19.33
2018-08-17T11:33:07.403Z,19.44
2018-08-17T11:34:07.405Z,19.45
2018-08-17T11:35:07.409Z,19.59
2018-08-17T11:36:07.413Z,19.66
2018-08-17T11:37:07.417Z,19.67
2018-08-17T11:38:07.417Z,19.69
2018-08-17T11:39:07.424Z,19.54
2018-08-17T11:40:07.424Z,19.48
2018-08-17T11:41:07.428Z,19.51
2018-08-17T11:42:07.431Z,19.45
2018-08-17T11:43:07.433Z,19.34
2018-08-17T11:44:07.438Z,19.33
2018-08-17T11:45:07.440Z,19.27
2018-08-17T11:46:07.444Z,19.30
2018-08-17T11:47:07.447Z,19.39
2018-08-17T11:48:07.450Z,19.48
2018-08-17T11:49:07.454Z,19.39
2018-08-17T11:50:07.455Z,19.29
2018-08-17T11:51:07.459Z,19.21
2018-08-17T11:52:07.463Z,19.39
2018-08-17T11:53:07.471Z,19.49
2018-08-17T11:54:07.468Z,19.52
2018-08-17T11:55:07.471Z,19.67
2018-08-17T11:56:07.475Z,19.79
2018-08-17T11:57:07.478Z,20.02
2018-08-17T11:58:07.482Z,19.89
2018-08-17T11:59:07.483Z,19.84
2018-08-17T12:00:07.486Z,19.70
2018-08-17T12:01:07.515Z,19.88
2018-08-17T12:02:07.494Z,20.02
2018-08-17T12:03:07.497Z,20.21
2018-08-17T12:04:07.498Z,20.25
2018-08-17T12:05:07.502Z,20.24
2018-08-17T12:06:07.505Z,20.21
2018-08-17T12:07:07.509Z,20.26
2018-08-17T12:08:07.579Z,20.37
2018-08-17T12:09:07.515Z,20.41
2018-08-17T12:10:07.520Z,20.41
2018-08-17T12:11:07.521Z,20.55
2018-08-17T12:12:07.526Z,20.66
2018-08-17T12:13:07.529Z,20.70
2018-08-17T12:14:07.532Z,20.72
2018-08-17T12:15:07.536Z,20.72
2018-08-17T12:16:07.541Z,20.85
2018-08-17T12:17:07.543Z,20.78
2018-08-17T12:18:07.544Z,20.67
2018-08-17T12:19:07.550Z,20.72
2018-08-17T12:20:07.557Z,20.63
2018-08-17T12:21:07.556Z,20.43
2018-08-17T12:22:07.559Z,20.55
2018-08-17T12:23:07.563Z,20.66
2018-08-17T12:24:07.623Z,20.70
2018-08-17T12:25:07.701Z,20.50
2018-08-17T12:26:07.574Z,20.43
2018-08-17T12:27:07.578Z,20.56
2018-08-17T12:28:07.584Z,20.58
2018-08-17T12:29:07.586Z,20.80
2018-08-17T12:30:07.590Z,21.09
2018-08-17T12:31:07.593Z,21.24
2018-08-17T12:32:07.654Z,21.40
2018-08-17T12:33:07.602Z,21.18
2018-08-17T12:34:07.603Z,21.21
2018-08-17T12:35:07.609Z,21.21
2018-08-17T12:36:07.613Z,21.21
2018-08-17T12:37:07.616Z,21.35
2018-08-17T12:38:07.621Z,21.40
2018-08-17T12:39:07.624Z,21.76
2018-08-17T12:40:07.632Z,22.04
2018-08-17T12:41:07.633Z,22.06
2018-08-17T12:42:07.636Z,21.93
2018-08-17T12:43:07.642Z,21.95
2018-08-17T12:44:07.646Z,21.88
2018-08-17T12:45:07.649Z,21.76
2018-08-17T12:46:07.654Z,21.62
2018-08-17T12:47:07.658Z,21.62
2018-08-17T12:48:07.663Z,21.51
2018-08-17T12:49:07.679Z,21.42
2018-08-17T12:50:07.671Z,21.30
2018-08-17T12:51:07.676Z,21.35
2018-08-17T12:52:07.683Z,21.52